Hlavní strana
METAR-TAF:

METAR-TAF

Letiště :

Kuopio, Finsko

zeměpisná šířka: 63-01N, zeměpisná délka: 027-48E, výška: 98 m

Aktuální stav počasí

Zpráva byla vytvořena před 18 minutami, v 17:50 UTC
Západojihozápadní vítr 3 kt
Teplota 24°C
Vlhkost vzduchu 47%
Tlak 1016 hPa
Viditelnost 10 km a více
Žádná oblačnost pod 1500 m, nevyskytují se cumulonimby.

METAR: EFKU 251750Z AUTO 24003KT CAVOK 24/12 Q1016

Čas: 21:08 (18:08 UTC)

Předpověď počasí

Zpráva byla vytvořena před 30 minutami, v 17:38 UTC
Předpověď platná od 25 v 18 UTC do 26 v 18 UTC
Západoseverozápadní vítr 4 kt
Viditelnost 10 km a více
Žádná oblačnost pod 1500 m, nevyskytují se cumulonimby.
Dočasný
od 26 v 12 UTC do 26 v 18 UTC
Skoro jasno ve výšce 5000 ft, Cumulonimbus.

TAF: EFKU 251738Z 2518/2618 29004KT CAVOK TEMPO 2612/2618 FEW050CB

Stav a předpovědi počasí z více než 4 000 letišť (zprávy METAR a TAF).

Červené a žluté tečky na mapě představují dostupné meteorologické stanice.

Když kurzor umístíte na tečku, zobrazí se název stanice.

Pak kliknutím zobrazíte stav a předpověď počasí.

Chcete-li změnit mapu, kliknutím na zelené tlačítko se znaménkem +mapu přiblížíte, kliknutím na zelené tlačítko se znaménkem – mapu oddálíte a kliknutím na zelené šipky přejdete na sousední mapy.


METAR-TAF: